Rio Madeira — D5FY9 — position and weather

sailwx.info

Track history (hours):
 
Tides and Currents Weather Stations Pressure Air Temp Water Temp Dewpoint Dewpoint Depression Visibility Wind Speed Wind Dir Waves Ship Positions

Rio Madeira

Last reported at 2017-Sep-19 12:00 UTC. Time now 2017-Sep-19 13:39 UTC.
Position N 44°36' W 008°42'.

Length 286 m; draft 8.5 m.

Type: Cargo ship. MMSI: 636092571.

Wind from 200 at 14 knots

Barometer 1025.2 mb
Air temperature 22.3 ° C
Visibility: greater than 27.0 NM
Dewpoint 11.1 ° C
Water temperature 20.0 ° C

Date/timePositionNaut miles runAvg speedWind from/ knotsBaromVisibWave heightAir tempDewpointWater temp
2017-Sep-19 12:00N 44°36' W 008°42'8714.5 200 / 141025.227.0 22.311.120.0
2017-Sep-19 06:00N 43°18' W 009°36'9015.1 1024.2 5.4 18.613.520.0
2017-Sep-19 00:00N 41°48' W 009°48'13215.1 350 / 101024.027.0 18.815.319.0
2017-Sep-18 15:13N 39°36' W 009°51'315.4
2017-Sep-18 15:00N 39°32' W 009°51'815.5
2017-Sep-18 14:30N 39°25' W 009°51'815.5
2017-Sep-18 13:59N 39°17' W 009°52'715.4
2017-Sep-18 13:30N 39°09' W 009°52'815.5
2017-Sep-18 13:00N 39°02' W 009°51'815.3
2017-Sep-18 12:30N 38°54' W 009°50'815.5
2017-Sep-18 12:00N 38°46' W 009°50'5284.1
2017-Sep-18 12:00N 38°42' W 009°48'3 7.1 340 / 121023.210.8 22.816.818.0
2017-Sep-18 11:30N 38°39' W 009°49'714.6
2017-Sep-18 11:00N 38°31' W 009°48'815.1
2017-Sep-18 10:30N 38°24' W 009°46'715.0
2017-Sep-18 10:00N 38°17' W 009°44'815.5
2017-Sep-18 09:30N 38°09' W 009°42'815.2
2017-Sep-18 09:00N 38°02' W 009°39'815.0
2017-Sep-18 08:30N 37°55' W 009°37'815.2
2017-Sep-18 08:00N 37°47' W 009°35'815.8
2017-Sep-18 07:30N 37°40' W 009°32'815.5
2017-Sep-18 07:00N 37°33' W 009°28'815.4
2017-Sep-18 06:30N 37°25' W 009°25'815.7
2017-Sep-18 06:00N 37°18' W 009°22'7525.5
2017-Sep-18 06:00N 37°12' W 009°18'3 6.1 180 / 121021.510.8 16.813.717.0
2017-Sep-18 05:30N 37°10' W 009°21'915.3
2017-Sep-18 04:56N 37°01' W 009°20'815.0
2017-Sep-18 04:26N 36°54' W 009°19'614.7
2017-Sep-18 04:00N 36°49' W 009°14'815.4
2017-Sep-18 03:30N 36°45' W 009°06'815.6
2017-Sep-18 03:00N 36°42' W 008°57'715.3
2017-Sep-18 02:30N 36°39' W 008°48'815.3
2017-Sep-18 02:00N 36°37' W 008°38'815.6
2017-Sep-18 01:30N 36°35' W 008°29'815.8
2017-Sep-18 01:00N 36°32' W 008°20'815.7
2017-Sep-18 00:30N 36°29' W 008°11'815.5
2017-Sep-18 00:00N 36°27' W 008°02'3219.0
2017-Sep-18 00:00N 36°24' W 008°00'612.1 330 / 181018.727.0 18.212.421.0
2017-Sep-17 23:30N 36°24' W 007°53'816.1
2017-Sep-17 23:00N 36°22' W 007°43'915.9
2017-Sep-17 22:27N 36°19' W 007°33'5815.5
2017-Sep-17 18:40N 35°59' W 006°25'315.4
2017-Sep-17 18:30N 35°59' W 006°22'815.7
2017-Sep-17 18:00N 35°58' W 006°12'11668.9
2017-Sep-17 18:00N 35°54' W 006°00'4 7.7 270 / 81018.010.8 23.615.623.0
2017-Sep-17 17:26N 35°58' W 006°01'1114.5
2017-Sep-17 16:39N 35°58' W 005°47'413.3
2017-Sep-17 16:20N 35°58' W 005°42'412.2
2017-Sep-17 15:59N 35°58' W 005°37'511.3
2017-Sep-17 15:30N 35°60' W 005°30'611.3
2017-Sep-17 15:00N 36°02' W 005°24'510.3
2017-Sep-17 14:30N 36°07' W 005°25'0 0.9
2017-Sep-17 14:00N 36°08' W 005°25'0 0.0
2017-Sep-17 13:30N 36°08' W 005°25'0 0.0
2017-Sep-17 13:00N 36°08' W 005°25'0 0.0
2017-Sep-17 12:30N 36°08' W 005°25'0 0.0
2017-Sep-17 12:00N 36°08' W 005°25'0 0.0
2017-Sep-17 11:30N 36°08' W 005°25'0 0.0
2017-Sep-17 11:00N 36°08' W 005°25'0 0.0
2017-Sep-17 10:30N 36°08' W 005°25'0 0.0
2017-Sep-17 10:00N 36°08' W 005°25'0 0.0
2017-Sep-17 09:30N 36°08' W 005°25'0 0.0
2017-Sep-17 09:00N 36°08' W 005°25'0 0.0
2017-Sep-17 08:29N 36°08' W 005°25'0 0.0
2017-Sep-17 08:00N 36°08' W 005°25'0 0.0
2017-Sep-17 07:30N 36°08' W 005°25'0 0.0
2017-Sep-17 07:00N 36°08' W 005°25'0 0.0
2017-Sep-17 06:30N 36°08' W 005°25'0 0.0
2017-Sep-17 06:00N 36°08' W 005°25'0 0.0
2017-Sep-17 05:30N 36°08' W 005°25'1 2.3
2017-Sep-17 05:00N 36°08' W 005°24'3 6.2
2017-Sep-17 04:30N 36°05' W 005°23'4 8.1
2017-Sep-17 04:00N 36°03' W 005°20'612.5
2017-Sep-17 03:30N 36°04' W 005°12'12212.8
2017-Sep-16 18:00N 36°18' W 002°42'7011.7 270 / 151013.110.8 21.415.523.0
2017-Sep-16 12:00N 36°36' W 001°18'7913.2 070 / 111013.010.8 27.418.925.0
2017-Sep-16 06:00N 36°54' E 000°18'7612.6 040 / 131010.3 5.4 22.619.826.0
2017-Sep-16 00:00N 37°18' E 001°48'8313.8 200 / 221009.527.0 24.820.126.0
2017-Sep-15 18:00N 37°36' E 003°30'8914.8 180 / 111009.2 5.4 25.919.126.0
2017-Sep-15 12:00N 38°00' E 005°18'9315.5 110 / 141010.810.8 27.919.126.0
2017-Sep-15 06:00N 38°24' E 007°12'8415.3 050 / 161013.410.8 22.417.325.0
2017-Sep-15 00:30N 38°48' E 008°55'815.4
2017-Sep-15 00:00N 38°50' E 009°04'4382.4
2017-Sep-15 00:00N 38°48' E 009°00'1224.0 290 / 101014.327.0 22.818.625.0
2017-Sep-14 23:30N 38°52' E 009°14'815.9
2017-Sep-14 23:00N 38°55' E 009°24'815.6
2017-Sep-14 22:30N 38°57' E 009°33'815.4
2017-Sep-14 22:00N 38°60' E 009°43'815.0
2017-Sep-14 21:29N 39°02' E 009°52'5315.1
2017-Sep-14 18:00N 39°24' E 010°54'2412.8 180 / 141014.4 5.4 24.318.025.0
2017-Sep-14 16:08N 39°32' E 011°23'214.0
2017-Sep-14 15:59N 39°33' E 011°26'5413.5
2017-Sep-14 12:00N 39°54' E 012°30'124 4.1 180 / 101018.027.0 26.115.225.0
2017-Sep-13 06:00N 39°24' E 015°06'1 6.7 250 / 121018.0 5.4 25.020.526.0
2017-Sep-13 05:47N 39°25' E 015°07'2119.5
2017-Sep-13 04:42N 39°06' E 015°18'719.7
2017-Sep-13 04:21N 38°59' E 015°21'819.3
2017-Sep-13 03:55N 38°52' E 015°25'819.5
2017-Sep-13 03:30N 38°44' E 015°29'1119.6
2017-Sep-13 02:56N 38°34' E 015°35'919.7
2017-Sep-13 02:30N 38°26' E 015°40'1019.0
2017-Sep-13 02:00N 38°18' E 015°45'816.2
2017-Sep-13 01:30N 38°13' E 015°37'713.2
2017-Sep-13 00:58N 38°05' E 015°36'4 9.3
2017-Sep-13 00:30N 38°01' E 015°36'611.2
2017-Sep-12 23:59N 37°55' E 015°38'1513.1
2017-Sep-12 22:52N 37°49' E 015°55'514.2
2017-Sep-12 22:30N 37°47' E 016°00'914.3
2017-Sep-12 21:53N 37°43' E 016°11'5514.1
2017-Sep-12 18:00N 37°18' E 017°12'19316.1 220 / 181015.310.8 26.220.527.0
2017-Sep-12 06:00N 35°54' E 020°48'9015.1 090 / 161012.6 5.4 26.016.326.0
2017-Sep-12 00:00N 35°18' E 022°30'19716.4 270 / 201011.610.8 24.517.726.0
2017-Sep-11 12:00N 33°54' E 026°06'21217.8 210 / 81012.8 5.4 30.022.727.0
2017-Sep-11 00:05N 32°31' E 029°59'117.9
2017-Sep-11 00:00N 32°31' E 030°00'139.6
2017-Sep-11 00:00N 32°30' E 030°00'918.3 1011.527.0 24.820.528.0
2017-Sep-10 23:30N 32°27' E 030°10'917.7
2017-Sep-10 23:00N 32°23' E 030°19'917.7
2017-Sep-10 22:30N 32°20' E 030°29'917.4
2017-Sep-10 22:00N 32°16' E 030°38'917.2
2017-Sep-10 21:30N 32°12' E 030°47'917.5
2017-Sep-10 21:00N 32°09' E 030°57'917.9
2017-Sep-10 20:30N 32°05' E 031°07'917.7
2017-Sep-10 20:00N 32°02' E 031°16'917.4
2017-Sep-10 19:30N 31°58' E 031°26'917.4
2017-Sep-10 19:00N 31°54' E 031°35'917.3
2017-Sep-10 18:30N 31°51' E 031°44'1017.1
2017-Sep-10 17:56N 31°47' E 031°55'717.0
2017-Sep-10 17:30N 31°43' E 032°02'917.3
2017-Sep-10 17:00N 31°37' E 032°09'1117.2
2017-Sep-10 16:24N 31°31' E 032°19'716.9
2017-Sep-10 16:00N 31°27' E 032°25'815.4
2017-Sep-10 15:30N 31°20' E 032°23'713.2
2017-Sep-10 15:01N 31°13' E 032°21'1 0.7
2017-Sep-10 14:01N 31°13' E 032°21'0 0.0
2017-Sep-10 13:31N 31°13' E 032°21'0 0.0
2017-Sep-10 13:00N 31°13' E 032°21'0 0.0
2017-Sep-10 12:31N 31°13' E 032°21'0 0.0
2017-Sep-10 12:00N 31°13' E 032°21'0 0.0
2017-Sep-10 11:31N 31°13' E 032°21'0 0.0
2017-Sep-10 11:01N 31°13' E 032°21'0 0.0
2017-Sep-10 10:31N 31°13' E 032°21'0 0.0
2017-Sep-10 10:00N 31°13' E 032°21'0 0.0
2017-Sep-10 09:30N 31°13' E 032°21'0 0.0
2017-Sep-10 08:56N 31°13' E 032°21'0 0.0
2017-Sep-10 08:21N 31°13' E 032°21'15 2.6
2017-Sep-10 02:46N 31°26' E 032°28'0 0.6
2017-Sep-10 02:31N 31°26' E 032°28'0 0.0
2017-Sep-10 01:59N 31°26' E 032°28'3 2.5
2017-Sep-10 00:37N 31°29' E 032°26'212.6
2017-Sep-10 00:30N 31°30' E 032°24'612.3
2017-Sep-10 00:00N 31°36' E 032°22'3813.4
2017-Sep-09 21:11N 32°08' E 032°45'314.6
2017-Sep-09 21:00N 32°10' E 032°47'1914.5
2017-Sep-09 19:43N 32°27' E 032°57'514.4
2017-Sep-09 19:24N 32°31' E 032°59'614.4
2017-Sep-09 19:00N 32°36' E 033°02'714.5
2017-Sep-09 18:30N 32°43' E 033°06'714.5
2017-Sep-09 18:00N 32°49' E 033°09'714.7
2017-Sep-09 17:30N 32°56' E 033°13'814.9
2017-Sep-09 16:58N 33°03' E 033°18'715.0
2017-Sep-09 16:30N 33°09' E 033°21'815.1
2017-Sep-09 16:00N 33°16' E 033°25'1715.2
2017-Sep-09 14:53N 33°31' E 033°34'615.4
2017-Sep-09 14:30N 33°36' E 033°38'815.2
2017-Sep-09 13:58N 33°44' E 033°42'715.5
2017-Sep-09 13:30N 33°50' E 033°46'1015.7
2017-Sep-09 12:54N 33°59' E 033°51'8 8.6
2017-Sep-09 12:00N 34°06' E 033°54'   340 / 51011.427.0 29.615.330.0
Track history (hours):
 
Tides and Currents Weather Stations Pressure Air Temp Water Temp Dewpoint Dewpoint Depression Visibility Wind Speed Wind Dir Waves Ship Positions

Rio Madeira

Last reported at 2017-Sep-19 12:00 UTC. Time now 2017-Sep-19 13:39 UTC.
Position N 44°36' W 008°42'.

Length 286 m; draft 8.5 m.

Type: Cargo ship. MMSI: 636092571.

Wind from 200 at 14 knots

Barometer 1025.2 mb
Air temperature 22.3 ° C
Visibility: greater than 27.0 NM
Dewpoint 11.1 ° C
Water temperature 20.0 ° C

Date/timePositionNaut miles runAvg speedWind from/ knotsBaromVisibWave heightAir tempDewpointWater temp
2017-Sep-19 12:00N 44°36' W 008°42'8714.5 200 / 141025.227.0 22.311.120.0
2017-Sep-19 06:00N 43°18' W 009°36'9015.1 1024.2 5.4 18.613.520.0
2017-Sep-19 00:00N 41°48' W 009°48'13215.1 350 / 101024.027.0 18.815.319.0
2017-Sep-18 15:13N 39°36' W 009°51'315.4
2017-Sep-18 15:00N 39°32' W 009°51'815.5
2017-Sep-18 14:30N 39°25' W 009°51'815.5
2017-Sep-18 13:59N 39°17' W 009°52'715.4
2017-Sep-18 13:30N 39°09' W 009°52'815.5
2017-Sep-18 13:00N 39°02' W 009°51'815.3
2017-Sep-18 12:30N 38°54' W 009°50'815.5
2017-Sep-18 12:00N 38°46' W 009°50'5284.1
2017-Sep-18 12:00N 38°42' W 009°48'3 7.1 340 / 121023.210.8 22.816.818.0
2017-Sep-18 11:30N 38°39' W 009°49'714.6
2017-Sep-18 11:00N 38°31' W 009°48'815.1
2017-Sep-18 10:30N 38°24' W 009°46'715.0
2017-Sep-18 10:00N 38°17' W 009°44'815.5
2017-Sep-18 09:30N 38°09' W 009°42'815.2
2017-Sep-18 09:00N 38°02' W 009°39'815.0
2017-Sep-18 08:30N 37°55' W 009°37'815.2
2017-Sep-18 08:00N 37°47' W 009°35'815.8
2017-Sep-18 07:30N 37°40' W 009°32'815.5
2017-Sep-18 07:00N 37°33' W 009°28'815.4
2017-Sep-18 06:30N 37°25' W 009°25'815.7
2017-Sep-18 06:00N 37°18' W 009°22'7525.5
2017-Sep-18 06:00N 37°12' W 009°18'3 6.1 180 / 121021.510.8 16.813.717.0
2017-Sep-18 05:30N 37°10' W 009°21'915.3
2017-Sep-18 04:56N 37°01' W 009°20'815.0
2017-Sep-18 04:26N 36°54' W 009°19'614.7
2017-Sep-18 04:00N 36°49' W 009°14'815.4
2017-Sep-18 03:30N 36°45' W 009°06'815.6
2017-Sep-18 03:00N 36°42' W 008°57'715.3
2017-Sep-18 02:30N 36°39' W 008°48'815.3
2017-Sep-18 02:00N 36°37' W 008°38'815.6
2017-Sep-18 01:30N 36°35' W 008°29'815.8
2017-Sep-18 01:00N 36°32' W 008°20'815.7
2017-Sep-18 00:30N 36°29' W 008°11'815.5
2017-Sep-18 00:00N 36°27' W 008°02'3219.0
2017-Sep-18 00:00N 36°24' W 008°00'612.1 330 / 181018.727.0 18.212.421.0
2017-Sep-17 23:30N 36°24' W 007°53'816.1
2017-Sep-17 23:00N 36°22' W 007°43'915.9
2017-Sep-17 22:27N 36°19' W 007°33'5815.5
2017-Sep-17 18:40N 35°59' W 006°25'315.4
2017-Sep-17 18:30N 35°59' W 006°22'815.7
2017-Sep-17 18:00N 35°58' W 006°12'11668.9
2017-Sep-17 18:00N 35°54' W 006°00'4 7.7 270 / 81018.010.8 23.615.623.0
2017-Sep-17 17:26N 35°58' W 006°01'1114.5
2017-Sep-17 16:39N 35°58' W 005°47'413.3
2017-Sep-17 16:20N 35°58' W 005°42'412.2
2017-Sep-17 15:59N 35°58' W 005°37'511.3
2017-Sep-17 15:30N 35°60' W 005°30'611.3
2017-Sep-17 15:00N 36°02' W 005°24'510.3
2017-Sep-17 14:30N 36°07' W 005°25'0 0.9
2017-Sep-17 14:00N 36°08' W 005°25'0 0.0
2017-Sep-17 13:30N 36°08' W 005°25'0 0.0
2017-Sep-17 13:00N 36°08' W 005°25'0 0.0
2017-Sep-17 12:30N 36°08' W 005°25'0 0.0
2017-Sep-17 12:00N 36°08' W 005°25'0 0.0
2017-Sep-17 11:30N 36°08' W 005°25'0 0.0
2017-Sep-17 11:00N 36°08' W 005°25'0 0.0
2017-Sep-17 10:30N 36°08' W 005°25'0 0.0
2017-Sep-17 10:00N 36°08' W 005°25'0 0.0
2017-Sep-17 09:30N 36°08' W 005°25'0 0.0
2017-Sep-17 09:00N 36°08' W 005°25'0 0.0
2017-Sep-17 08:29N 36°08' W 005°25'0 0.0
2017-Sep-17 08:00N 36°08' W 005°25'0 0.0
2017-Sep-17 07:30N 36°08' W 005°25'0 0.0
2017-Sep-17 07:00N 36°08' W 005°25'0 0.0
2017-Sep-17 06:30N 36°08' W 005°25'0 0.0
2017-Sep-17 06:00N 36°08' W 005°25'0 0.0
2017-Sep-17 05:30N 36°08' W 005°25'1 2.3
2017-Sep-17 05:00N 36°08' W 005°24'3 6.2
2017-Sep-17 04:30N 36°05' W 005°23'4 8.1
2017-Sep-17 04:00N 36°03' W 005°20'612.5
2017-Sep-17 03:30N 36°04' W 005°12'12212.8
2017-Sep-16 18:00N 36°18' W 002°42'7011.7 270 / 151013.110.8 21.415.523.0
2017-Sep-16 12:00N 36°36' W 001°18'7913.2 070 / 111013.010.8 27.418.925.0
2017-Sep-16 06:00N 36°54' E 000°18'7612.6 040 / 131010.3 5.4 22.619.826.0
2017-Sep-16 00:00N 37°18' E 001°48'8313.8 200 / 221009.527.0 24.820.126.0
2017-Sep-15 18:00N 37°36' E 003°30'8914.8 180 / 111009.2 5.4 25.919.126.0
2017-Sep-15 12:00N 38°00' E 005°18'9315.5 110 / 141010.810.8 27.919.126.0
2017-Sep-15 06:00N 38°24' E 007°12'8415.3 050 / 161013.410.8 22.417.325.0
2017-Sep-15 00:30N 38°48' E 008°55'815.4
2017-Sep-15 00:00N 38°50' E 009°04'4382.4
2017-Sep-15 00:00N 38°48' E 009°00'1224.0 290 / 101014.327.0 22.818.625.0
2017-Sep-14 23:30N 38°52' E 009°14'815.9
2017-Sep-14 23:00N 38°55' E 009°24'815.6
2017-Sep-14 22:30N 38°57' E 009°33'815.4
2017-Sep-14 22:00N 38°60' E 009°43'815.0
2017-Sep-14 21:29N 39°02' E 009°52'5315.1
2017-Sep-14 18:00N 39°24' E 010°54'2412.8 180 / 141014.4 5.4 24.318.025.0
2017-Sep-14 16:08N 39°32' E 011°23'214.0
2017-Sep-14 15:59N 39°33' E 011°26'5413.5
2017-Sep-14 12:00N 39°54' E 012°30'124 4.1 180 / 101018.027.0 26.115.225.0
2017-Sep-13 06:00N 39°24' E 015°06'1 6.7 250 / 121018.0 5.4 25.020.526.0
2017-Sep-13 05:47N 39°25' E 015°07'2119.5
2017-Sep-13 04:42N 39°06' E 015°18'719.7
2017-Sep-13 04:21N 38°59' E 015°21'819.3
2017-Sep-13 03:55N 38°52' E 015°25'819.5
2017-Sep-13 03:30N 38°44' E 015°29'1119.6
2017-Sep-13 02:56N 38°34' E 015°35'919.7
2017-Sep-13 02:30N 38°26' E 015°40'1019.0
2017-Sep-13 02:00N 38°18' E 015°45'816.2
2017-Sep-13 01:30N 38°13' E 015°37'713.2
2017-Sep-13 00:58N 38°05' E 015°36'4 9.3
2017-Sep-13 00:30N 38°01' E 015°36'611.2
2017-Sep-12 23:59N 37°55' E 015°38'1513.1
2017-Sep-12 22:52N 37°49' E 015°55'514.2
2017-Sep-12 22:30N 37°47' E 016°00'914.3
2017-Sep-12 21:53N 37°43' E 016°11'5514.1
2017-Sep-12 18:00N 37°18' E 017°12'19316.1 220 / 181015.310.8 26.220.527.0
2017-Sep-12 06:00N 35°54' E 020°48'9015.1 090 / 161012.6 5.4 26.016.326.0
2017-Sep-12 00:00N 35°18' E 022°30'19716.4 270 / 201011.610.8 24.517.726.0
2017-Sep-11 12:00N 33°54' E 026°06'21217.8 210 / 81012.8 5.4 30.022.727.0
2017-Sep-11 00:05N 32°31' E 029°59'117.9
2017-Sep-11 00:00N 32°31' E 030°00'139.6
2017-Sep-11 00:00N 32°30' E 030°00'918.3 1011.527.0 24.820.528.0
2017-Sep-10 23:30N 32°27' E 030°10'917.7
2017-Sep-10 23:00N 32°23' E 030°19'917.7
2017-Sep-10 22:30N 32°20' E 030°29'917.4
2017-Sep-10 22:00N 32°16' E 030°38'917.2
2017-Sep-10 21:30N 32°12' E 030°47'917.5
2017-Sep-10 21:00N 32°09' E 030°57'917.9
2017-Sep-10 20:30N 32°05' E 031°07'917.7
2017-Sep-10 20:00N 32°02' E 031°16'917.4
2017-Sep-10 19:30N 31°58' E 031°26'917.4
2017-Sep-10 19:00N 31°54' E 031°35'917.3
2017-Sep-10 18:30N 31°51' E 031°44'1017.1
2017-Sep-10 17:56N 31°47' E 031°55'717.0
2017-Sep-10 17:30N 31°43' E 032°02'917.3
2017-Sep-10 17:00N 31°37' E 032°09'1117.2
2017-Sep-10 16:24N 31°31' E 032°19'716.9
2017-Sep-10 16:00N 31°27' E 032°25'815.4
2017-Sep-10 15:30N 31°20' E 032°23'713.2
2017-Sep-10 15:01N 31°13' E 032°21'1 0.7
2017-Sep-10 14:01N 31°13' E 032°21'0 0.0
2017-Sep-10 13:31N 31°13' E 032°21'0 0.0
2017-Sep-10 13:00N 31°13' E 032°21'0 0.0
2017-Sep-10 12:31N 31°13' E 032°21'0 0.0
2017-Sep-10 12:00N 31°13' E 032°21'0 0.0
2017-Sep-10 11:31N 31°13' E 032°21'0 0.0
2017-Sep-10 11:01N 31°13' E 032°21'0 0.0
2017-Sep-10 10:31N 31°13' E 032°21'0 0.0
2017-Sep-10 10:00N 31°13' E 032°21'0 0.0
2017-Sep-10 09:30N 31°13' E 032°21'0 0.0
2017-Sep-10 08:56N 31°13' E 032°21'0 0.0
2017-Sep-10 08:21N 31°13' E 032°21'15 2.6
2017-Sep-10 02:46N 31°26' E 032°28'0 0.6
2017-Sep-10 02:31N 31°26' E 032°28'0 0.0
2017-Sep-10 01:59N 31°26' E 032°28'3 2.5
2017-Sep-10 00:37N 31°29' E 032°26'212.6
2017-Sep-10 00:30N 31°30' E 032°24'612.3
2017-Sep-10 00:00N 31°36' E 032°22'3813.4
2017-Sep-09 21:11N 32°08' E 032°45'314.6
2017-Sep-09 21:00N 32°10' E 032°47'1914.5
2017-Sep-09 19:43N 32°27' E 032°57'514.4
2017-Sep-09 19:24N 32°31' E 032°59'614.4
2017-Sep-09 19:00N 32°36' E 033°02'714.5
2017-Sep-09 18:30N 32°43' E 033°06'714.5
2017-Sep-09 18:00N 32°49' E 033°09'714.7
2017-Sep-09 17:30N 32°56' E 033°13'814.9
2017-Sep-09 16:58N 33°03' E 033°18'715.0
2017-Sep-09 16:30N 33°09' E 033°21'815.1
2017-Sep-09 16:00N 33°16' E 033°25'1715.2
2017-Sep-09 14:53N 33°31' E 033°34'615.4
2017-Sep-09 14:30N 33°36' E 033°38'815.2
2017-Sep-09 13:58N 33°44' E 033°42'715.5
2017-Sep-09 13:30N 33°50' E 033°46'1015.7
2017-Sep-09 12:54N 33°59' E 033°51'8 8.6
2017-Sep-09 12:00N 34°06' E 033°54'   340 / 51011.427.0 29.615.330.0

Dump ship's entire track history